Airfield :







YOU CAN JOIN US ON...

 
LOGIN :

Register | Disclaimer

   EN    FR    IT 

 









Legend :    VFR   Marginal VFR   IFR   Intensive IFR   Very Intensive IFR
Visi :
Ceiling :
>= 8 km
>= 3000ft
5 to 8 km
1000 to 3000 ft
1500m to 5 km
500 to 1000 ft
800 to 1500m
200 to 500 ft
< 800m
< 200 ft
Symbols :   Thunderstorms  Fog  Heavy snow  Heavy precipitations  Wind > 20 kt






- Airport Elevation : 108 ft
- IATA code : YAY


CYAY - St Anthony

CURRENT METAR :
  • 250207Z AUTO 11023G31KT 5SM BR FEW032 SCT049 BKN055 OVC073 12/11 A2926 RMK SLP910 DENSITY ALT 600FT

EXPIRED METARs :
  • 250100Z AUTO 10024G29KT 6SM BR SCT060 SCT077 13/11 A2928 RMK SLP918 DENSITY ALT 700FT
  • 250029Z AUTO 10024G31KT 6SM BR FEW076 13/11 A2929 RMK PRESFR SLP921 DENSITY ALT 600FT

TAF TAF CYAY
Valid from the 25 at 02:00 until the 25 at 14:00 UTC


250140Z 2502/2514 12022G32KT 6SM -RA BR OVC060
TEMPO 2502/2511 2 1/4SM -RA BR BKN020 OVC060
BECMG 2504/2506 15030G45KT
FM251100 21030G45KT 6SM -RA BR OVC030
TEMPO 2511/2514 2 1/4SM -RA BR OVC020
BECMG 2512/2514 22025G35KT RMK FCST BASED ON AUTO OBS. NXT FCST BY 250800Z
CZQX FIR / North America



MET'MAP, your aeronautical weather chart ! - Copyright ORBIFLY December 2007 - Disclaimer

ORBIFLY MET'MAP TEAM :

Programming & Development : Alexandra Zaïnal
Original concept : Baudouin d'Aumeries
Technical & hardware support : Manuel Goepfert
Assistance : Marc-Olivier Méhu




SOURCES & CREDITS :

   NOAA